Terminal Aerodrome Forecast
Issued by NWS Bismarck, ND

Home | Current Version | Previous Version | Text Only | Print | Product List | Glossary On
Versions: 1 2 3 4 5 6 7 8 9 10 11 12 13 14 15
000
FTUS43 KBIS 161700 RRA
TAFISN
TAF
KISN 161743Z 1618/1718 08012KT P6SM OVC018
     FM162200 08010KT P6SM BKN025
     FM170900 10007KT 6SM BR OVC012
     FM171500 13012KT P6SM BKN030=

USA.gov is the U.S. government's official web portal to all federal, state and local government web resources and services.